createdAt,value
2018-06-07T00:00:48.825Z,19.12
2018-06-07T00:01:55.869Z,19.06
2018-06-07T00:03:02.341Z,19.06
2018-06-07T00:04:08.370Z,19.04
2018-06-07T00:05:14.862Z,19.07
2018-06-07T00:06:21.875Z,19.11
2018-06-07T00:07:27.898Z,19.11
2018-06-07T00:08:34.395Z,19.15
2018-06-07T00:09:41.386Z,19.13
2018-06-07T00:10:47.898Z,19.06
2018-06-07T00:11:54.395Z,18.86
2018-06-07T00:13:00.953Z,18.65
2018-06-07T00:14:07.414Z,18.55
2018-06-07T00:15:13.425Z,18.56
2018-06-07T00:16:20.431Z,18.53
2018-06-07T00:17:26.939Z,18.53
2018-06-07T00:18:34.447Z,18.56
2018-06-07T00:19:39.922Z,18.68
2018-06-07T00:20:45.931Z,18.75
2018-06-07T00:21:52.446Z,18.80
2018-06-07T00:22:59.544Z,18.83
2018-06-07T00:24:05.427Z,18.86
2018-06-07T00:25:12.411Z,18.91
2018-06-07T00:26:18.432Z,18.95
2018-06-07T00:27:25.445Z,18.93
2018-06-07T00:28:31.912Z,18.94
2018-06-07T00:29:38.417Z,18.91
2018-06-07T00:30:44.413Z,18.88
2018-06-07T00:31:51.408Z,18.85
2018-06-07T00:32:57.440Z,18.85
2018-06-07T00:34:04.409Z,18.87
2018-06-07T00:35:10.406Z,18.87
2018-06-07T00:36:16.909Z,18.89
2018-06-07T00:37:23.916Z,18.90
2018-06-07T00:38:29.908Z,18.88
2018-06-07T00:39:36.399Z,18.92
2018-06-07T00:40:43.391Z,18.92
2018-06-07T00:41:49.901Z,18.92
2018-06-07T00:42:56.406Z,18.94
2018-06-07T00:44:02.886Z,18.97
2018-06-07T00:45:09.400Z,18.95
2018-06-07T00:46:15.902Z,18.95
2018-06-07T00:47:22.403Z,18.96
2018-06-07T00:48:28.880Z,19.01
2018-06-07T00:49:35.379Z,19.04
2018-06-07T00:50:41.885Z,19.04
2018-06-07T00:51:47.892Z,19.00
2018-06-07T00:52:54.419Z,18.95
2018-06-07T00:54:00.879Z,18.95
2018-06-07T00:55:08.384Z,18.98
2018-06-07T00:56:13.890Z,18.95
2018-06-07T00:57:20.414Z,18.96
2018-06-07T00:58:26.880Z,18.96
2018-06-07T00:59:34.872Z,18.96
2018-06-07T01:00:40.399Z,18.96
2018-06-07T01:01:46.885Z,18.97
2018-06-07T01:02:52.936Z,19.02
2018-06-07T01:03:59.894Z,19.05
2018-06-07T01:05:05.922Z,19.07
2018-06-07T01:06:12.898Z,19.07
2018-06-07T01:07:18.887Z,19.05
2018-06-07T01:08:25.919Z,19.04
2018-06-07T01:09:32.382Z,19.05
2018-06-07T01:10:38.880Z,19.07
2018-06-07T01:11:44.906Z,19.09
2018-06-07T01:12:51.409Z,19.07
2018-06-07T01:13:57.889Z,19.07
2018-06-07T01:15:04.414Z,19.08
2018-06-07T01:16:10.904Z,19.03
2018-06-07T01:17:17.895Z,19.00
2018-06-07T01:18:24.414Z,18.94
2018-06-07T01:19:30.407Z,18.91
2018-06-07T01:20:37.400Z,18.87
2018-06-07T01:21:43.403Z,18.83
2018-06-07T01:22:49.933Z,18.79
2018-06-07T01:23:56.893Z,18.65
2018-06-07T01:25:02.910Z,18.45
2018-06-07T01:26:09.410Z,18.30
2018-06-07T01:27:15.923Z,18.22
2018-06-07T01:28:22.419Z,18.17
2018-06-07T01:29:29.388Z,18.16
2018-06-07T01:30:35.394Z,18.17
2018-06-07T01:31:41.877Z,18.18
2018-06-07T01:32:48.415Z,18.28
2018-06-07T01:33:54.872Z,18.35
2018-06-07T01:35:01.356Z,18.41
2018-06-07T01:36:07.850Z,18.43
2018-06-07T01:37:14.340Z,18.44
2018-06-07T01:38:20.839Z,18.47
2018-06-07T01:39:28.819Z,18.46
2018-06-07T01:40:34.288Z,18.44
2018-06-07T01:41:40.298Z,18.45
2018-06-07T01:42:47.266Z,18.45
2018-06-07T01:43:53.776Z,18.43
2018-06-07T01:44:59.761Z,18.41
2018-06-07T01:46:06.731Z,18.38
2018-06-07T01:47:13.220Z,18.35
2018-06-07T01:48:19.239Z,18.36
2018-06-07T01:49:26.211Z,18.35
2018-06-07T01:50:32.681Z,18.34
2018-06-07T01:51:39.163Z,18.32
2018-06-07T01:52:45.157Z,18.31
2018-06-07T01:53:51.667Z,18.31
2018-06-07T01:54:58.614Z,18.32
2018-06-07T01:56:05.103Z,18.31
2018-06-07T01:57:11.090Z,18.37
2018-06-07T01:58:18.091Z,18.40
2018-06-07T01:59:24.563Z,18.44
2018-06-07T02:00:30.531Z,18.47
2018-06-07T02:01:37.519Z,18.43
2018-06-07T02:02:43.498Z,18.45
2018-06-07T02:03:50.509Z,18.42
2018-06-07T02:04:56.942Z,18.35
2018-06-07T02:06:03.534Z,18.35
2018-06-07T02:07:09.914Z,18.35
2018-06-07T02:08:16.380Z,18.32
2018-06-07T02:09:22.386Z,18.35
2018-06-07T02:10:29.350Z,18.37
2018-06-07T02:11:35.356Z,18.35
2018-06-07T02:12:42.320Z,18.32
2018-06-07T02:13:48.327Z,18.29
2018-06-07T02:14:54.792Z,18.27
2018-06-07T02:16:01.273Z,18.28
2018-06-07T02:17:08.255Z,18.31
2018-06-07T02:18:14.742Z,18.31
2018-06-07T02:19:20.733Z,18.27
2018-06-07T02:20:27.190Z,18.26
2018-06-07T02:21:33.673Z,18.22
2018-06-07T02:22:40.159Z,18.22
2018-06-07T02:23:47.156Z,18.21
2018-06-07T02:24:53.114Z,18.20
2018-06-07T02:25:59.600Z,18.17
2018-06-07T02:27:06.577Z,18.11
2018-06-07T02:28:12.559Z,18.09
2018-06-07T02:29:19.552Z,18.09
2018-06-07T02:30:26.009Z,18.09
2018-06-07T02:31:32.499Z,18.06
2018-06-07T02:32:38.983Z,18.03
2018-06-07T02:33:45.553Z,17.98
2018-06-07T02:34:51.524Z,17.93
2018-06-07T02:35:58.411Z,17.89
2018-06-07T02:37:05.886Z,17.83
2018-06-07T02:38:11.372Z,17.81
2018-06-07T02:39:17.875Z,17.78
2018-06-07T02:40:23.829Z,17.77
2018-06-07T02:41:30.303Z,17.80
2018-06-07T02:42:37.270Z,17.79
2018-06-07T02:43:43.757Z,17.81
2018-06-07T02:44:50.221Z,17.79
2018-06-07T02:45:56.199Z,17.77
2018-06-07T02:47:03.171Z,17.76
2018-06-07T02:48:09.632Z,17.75
2018-06-07T02:49:15.624Z,17.75
2018-06-07T02:50:22.578Z,17.77
2018-06-07T02:51:28.552Z,17.78
2018-06-07T02:52:35.528Z,17.80
2018-06-07T02:53:41.488Z,17.79
2018-06-07T02:54:47.982Z,17.76
2018-06-07T02:55:54.922Z,17.72
2018-06-07T02:57:01.398Z,17.67
2018-06-07T02:58:07.355Z,17.70
2018-06-07T02:59:13.844Z,17.73
2018-06-07T03:00:20.292Z,17.75
2018-06-07T03:01:27.291Z,17.78
2018-06-07T03:02:33.718Z,17.80
2018-06-07T03:03:39.703Z,17.82
2018-06-07T03:04:46.672Z,17.81
2018-06-07T03:05:53.126Z,17.77
2018-06-07T03:07:00.588Z,17.75
2018-06-07T03:08:05.576Z,17.71
2018-06-07T03:09:12.064Z,17.69
2018-06-07T03:10:18.492Z,17.66
2018-06-07T03:11:24.978Z,17.59
2018-06-07T03:12:31.923Z,17.53
2018-06-07T03:13:38.390Z,17.44
2018-06-07T03:14:44.393Z,17.42
2018-06-07T03:15:51.320Z,17.38
2018-06-07T03:16:58.281Z,17.32
2018-06-07T03:18:04.259Z,17.25
2018-06-07T03:19:10.254Z,17.22
2018-06-07T03:20:16.680Z,17.19
2018-06-07T03:21:23.639Z,17.13
2018-06-07T03:22:30.099Z,17.10
2018-06-07T03:23:36.057Z,17.09
2018-06-07T03:24:42.526Z,17.08
2018-06-07T03:25:48.975Z,17.09
2018-06-07T03:26:55.918Z,17.10
2018-06-07T03:28:02.866Z,17.07
2018-06-07T03:29:08.845Z,17.04
2018-06-07T03:30:14.798Z,17.00
2018-06-07T03:31:21.736Z,16.92
2018-06-07T03:32:27.689Z,16.78
2018-06-07T03:33:34.638Z,16.66
2018-06-07T03:34:40.615Z,16.57
2018-06-07T03:35:47.050Z,16.58
2018-06-07T03:36:54.005Z,16.59
2018-06-07T03:37:59.950Z,16.62
2018-06-07T03:39:06.921Z,16.65
2018-06-07T03:40:13.339Z,16.69
2018-06-07T03:41:20.779Z,16.64
2018-06-07T03:42:25.760Z,16.57
2018-06-07T03:43:32.177Z,16.58
2018-06-07T03:44:38.656Z,16.61
2018-06-07T03:45:45.575Z,16.63
2018-06-07T03:46:51.534Z,16.60
2018-06-07T03:47:58.472Z,16.57
2018-06-07T03:49:04.438Z,16.57
2018-06-07T03:50:11.390Z,16.56
2018-06-07T03:51:17.308Z,16.50
2018-06-07T03:52:23.754Z,16.42
2018-06-07T03:53:30.186Z,16.35
2018-06-07T03:54:37.148Z,16.31
2018-06-07T03:55:43.083Z,16.28
2018-06-07T03:56:49.525Z,16.26
2018-06-07T03:57:55.965Z,16.29
2018-06-07T03:59:02.423Z,16.31
2018-06-07T04:00:10.376Z,16.31
2018-06-07T04:01:15.805Z,16.31
2018-06-07T04:02:21.802Z,16.31
2018-06-07T04:03:28.190Z,16.29
2018-06-07T04:04:35.154Z,16.27
2018-06-07T04:05:41.576Z,16.29
2018-06-07T04:06:47.530Z,16.32
2018-06-07T04:07:54.454Z,16.38
2018-06-07T04:09:00.901Z,16.45
2018-06-07T04:10:06.892Z,16.45
2018-06-07T04:11:13.792Z,16.39
2018-06-07T04:12:20.225Z,16.33
2018-06-07T04:13:26.660Z,16.29
2018-06-07T04:14:32.627Z,16.32
2018-06-07T04:15:39.051Z,16.37
2018-06-07T04:16:45.493Z,16.42
2018-06-07T04:17:51.939Z,16.50
2018-06-07T04:18:58.875Z,16.55
2018-06-07T04:20:05.328Z,16.53
2018-06-07T04:21:11.792Z,16.53
2018-06-07T04:22:17.721Z,16.61
2018-06-07T04:23:24.643Z,16.67
2018-06-07T04:24:31.123Z,16.67
2018-06-07T04:25:37.047Z,16.64
2018-06-07T04:26:43.500Z,16.62
2018-06-07T04:27:49.941Z,16.61
2018-06-07T04:28:56.864Z,16.63
2018-06-07T04:30:03.347Z,16.65
2018-06-07T04:31:09.259Z,16.67
2018-06-07T04:32:15.731Z,16.76
2018-06-07T04:33:22.154Z,16.86
2018-06-07T04:34:28.635Z,16.95
2018-06-07T04:35:35.054Z,16.96
2018-06-07T04:36:41.504Z,16.96
2018-06-07T04:37:48.458Z,16.94
2018-06-07T04:38:54.418Z,16.93
2018-06-07T04:40:01.372Z,16.91
2018-06-07T04:41:07.303Z,16.91
2018-06-07T04:42:14.255Z,16.95
2018-06-07T04:43:20.704Z,16.95
2018-06-07T04:44:27.679Z,16.97
2018-06-07T04:45:33.646Z,16.96
2018-06-07T04:46:39.590Z,16.98
2018-06-07T04:47:46.031Z,17.00
2018-06-07T04:48:52.982Z,17.06
2018-06-07T04:49:58.973Z,17.11
2018-06-07T04:51:05.423Z,17.13
2018-06-07T04:52:12.355Z,17.17
2018-06-07T04:53:18.325Z,17.21
2018-06-07T04:54:25.275Z,17.25
2018-06-07T04:55:31.768Z,17.33
2018-06-07T04:56:37.714Z,17.41
2018-06-07T04:57:44.172Z,17.45
2018-06-07T04:58:50.650Z,17.48
2018-06-07T04:59:57.140Z,17.51
2018-06-07T05:01:03.575Z,17.55
2018-06-07T05:02:10.059Z,17.55
2018-06-07T05:03:17.006Z,17.56
2018-06-07T05:04:22.978Z,17.58
2018-06-07T05:05:29.964Z,17.62
2018-06-07T05:06:36.441Z,17.64
2018-06-07T05:07:42.396Z,17.68
2018-06-07T05:08:48.852Z,17.74
2018-06-07T05:09:55.840Z,17.85
2018-06-07T05:11:01.807Z,17.95
2018-06-07T05:12:08.821Z,18.05
2018-06-07T05:13:14.759Z,18.10
2018-06-07T05:14:21.744Z,18.15
2018-06-07T05:15:28.244Z,18.18
2018-06-07T05:16:34.195Z,18.29
2018-06-07T05:17:41.192Z,18.56
2018-06-07T05:18:47.185Z,18.82
2018-06-07T05:19:54.667Z,19.04
2018-06-07T05:21:00.143Z,19.18
2018-06-07T05:22:07.147Z,19.27
2018-06-07T05:23:13.123Z,19.38
2018-06-07T05:24:21.114Z,19.47
2018-06-07T05:25:26.143Z,19.54
2018-06-07T05:26:32.631Z,19.61
2018-06-07T05:27:40.629Z,19.69
2018-06-07T05:28:46.144Z,19.72
2018-06-07T05:29:52.672Z,19.76
2018-06-07T05:30:58.698Z,19.83
2018-06-07T05:32:05.243Z,19.91
2018-06-07T05:33:12.202Z,19.99
2018-06-07T05:34:18.209Z,20.07
2018-06-07T05:35:25.068Z,20.12
2018-06-07T05:36:31.744Z,20.16
2018-06-07T05:37:38.280Z,20.25
2018-06-07T05:38:44.832Z,20.37
2018-06-07T05:39:51.319Z,20.46
2018-06-07T05:40:57.888Z,20.55
2018-06-07T05:42:03.903Z,20.61
2018-06-07T05:43:10.441Z,20.68
2018-06-07T05:44:16.981Z,20.71
2018-06-07T05:45:23.535Z,20.75
2018-06-07T05:46:30.057Z,20.80
2018-06-07T05:47:37.117Z,20.84
2018-06-07T05:48:43.235Z,20.87
2018-06-07T05:49:49.689Z,20.92
2018-06-07T05:50:56.272Z,20.98
2018-06-07T05:52:02.847Z,21.04
2018-06-07T05:53:09.355Z,21.12
2018-06-07T05:54:15.895Z,21.19
2018-06-07T05:55:22.974Z,21.19
2018-06-07T05:56:29.011Z,21.24
2018-06-07T05:57:35.605Z,21.29
2018-06-07T05:58:42.136Z,21.33
2018-06-07T05:59:49.223Z,21.36
2018-06-07T06:00:55.847Z,21.39
2018-06-07T06:02:01.821Z,21.45
2018-06-07T06:03:08.443Z,21.48
2018-06-07T06:04:15.527Z,21.53
2018-06-07T06:05:22.074Z,21.60
2018-06-07T06:06:28.601Z,21.67
2018-06-07T06:07:34.691Z,21.73
2018-06-07T06:08:41.278Z,21.80
2018-06-07T06:09:48.332Z,21.87
2018-06-07T06:10:54.435Z,21.91
2018-06-07T06:12:01.526Z,21.96
2018-06-07T06:13:08.077Z,21.97
2018-06-07T06:14:14.673Z,22.00
2018-06-07T06:15:20.768Z,22.04
2018-06-07T06:16:27.333Z,22.08
2018-06-07T06:17:33.921Z,22.10
2018-06-07T06:18:40.514Z,22.12
2018-06-07T06:19:47.103Z,22.16
2018-06-07T06:20:53.718Z,22.22
2018-06-07T06:22:00.782Z,22.24
2018-06-07T06:23:07.388Z,22.21
2018-06-07T06:24:14.442Z,22.24
2018-06-07T06:25:20.130Z,22.25
2018-06-07T06:26:27.186Z,22.27
2018-06-07T06:27:33.789Z,22.35
2018-06-07T06:28:39.884Z,22.35
2018-06-07T06:29:46.503Z,22.37
2018-06-07T06:30:53.140Z,22.31
2018-06-07T06:31:59.734Z,22.34
2018-06-07T06:33:06.325Z,22.41
2018-06-07T06:34:13.174Z,22.46
2018-06-07T06:35:19.567Z,22.46
2018-06-07T06:36:26.704Z,22.43
2018-06-07T06:37:33.299Z,22.45
2018-06-07T06:38:39.925Z,22.40
2018-06-07T06:39:46.566Z,22.42
2018-06-07T06:40:52.705Z,22.41
2018-06-07T06:41:59.822Z,22.44
2018-06-07T06:43:07.532Z,22.43
2018-06-07T06:44:13.087Z,22.47
2018-06-07T06:45:19.220Z,22.55
2018-06-07T06:46:26.478Z,22.64
2018-06-07T06:47:33.993Z,22.71
2018-06-07T06:48:39.148Z,22.69
2018-06-07T06:49:46.285Z,22.66
2018-06-07T06:50:52.446Z,22.66
2018-06-07T06:51:59.605Z,22.67
2018-06-07T06:53:06.218Z,22.67
2018-06-07T06:54:12.362Z,22.70
2018-06-07T06:55:19.019Z,22.79
2018-06-07T06:56:25.680Z,22.82
2018-06-07T06:57:32.316Z,22.86
2018-06-07T06:58:38.962Z,22.94
2018-06-07T06:59:45.622Z,22.95
2018-06-07T07:00:52.812Z,22.99
2018-06-07T07:01:59.521Z,22.97
2018-06-07T07:03:06.088Z,23.14
2018-06-07T07:04:12.777Z,23.12
2018-06-07T07:05:19.398Z,23.15
2018-06-07T07:06:25.593Z,23.24
2018-06-07T07:07:32.730Z,23.28
2018-06-07T07:08:38.911Z,23.29
2018-06-07T07:09:45.566Z,23.34
2018-06-07T07:10:52.753Z,23.38
2018-06-07T07:11:58.900Z,23.85
2018-06-07T07:13:06.374Z,25.39
2018-06-07T07:14:12.750Z,26.54
2018-06-07T07:15:19.424Z,27.34
2018-06-07T07:16:25.604Z,29.09
2018-06-07T07:17:32.765Z,31.07
2018-06-07T07:18:38.929Z,32.66
2018-06-07T07:19:46.099Z,33.65
2018-06-07T07:20:52.306Z,34.10
2018-06-07T07:21:58.966Z,33.93
2018-06-07T07:23:05.648Z,32.41
2018-06-07T07:24:12.818Z,31.20
2018-06-07T07:25:19.538Z,29.84
2018-06-07T07:26:25.728Z,29.63
2018-06-07T07:27:32.400Z,31.04
2018-06-07T07:28:39.577Z,33.02
2018-06-07T07:29:46.281Z,34.35
2018-06-07T07:30:53.033Z,35.47
2018-06-07T07:31:59.668Z,35.90
2018-06-07T07:33:05.879Z,36.28
2018-06-07T07:34:13.082Z,36.27
2018-06-07T07:35:19.290Z,36.41
2018-06-07T07:36:26.514Z,36.29
2018-06-07T07:37:32.685Z,35.11
2018-06-07T07:38:39.405Z,33.23
2018-06-07T07:39:46.602Z,31.61
2018-06-07T07:40:52.860Z,30.05
2018-06-07T07:42:00.039Z,28.97
2018-06-07T07:43:06.733Z,28.01
2018-06-07T07:44:13.955Z,27.31
2018-06-07T07:45:19.713Z,26.64
2018-06-07T07:46:26.915Z,26.28
2018-06-07T07:47:33.604Z,26.05
2018-06-07T07:48:40.327Z,25.84
2018-06-07T07:49:47.081Z,25.58
2018-06-07T07:50:53.788Z,25.51
2018-06-07T07:52:00.048Z,25.52
2018-06-07T07:53:07.248Z,25.47
2018-06-07T07:54:13.472Z,25.37
2018-06-07T07:55:20.708Z,25.35
2018-06-07T07:56:26.983Z,25.39
2018-06-07T07:57:34.177Z,25.28
2018-06-07T07:58:40.425Z,25.16
2018-06-07T07:59:47.187Z,25.15
2018-06-07T08:00:53.914Z,25.16
2018-06-07T08:02:00.692Z,25.15
2018-06-07T08:03:07.393Z,25.16
2018-06-07T08:04:14.635Z,25.05
2018-06-07T08:05:20.907Z,24.97
2018-06-07T08:06:27.662Z,24.89
2018-06-07T08:07:34.883Z,25.01
2018-06-07T08:08:41.632Z,25.15
2018-06-07T08:09:48.386Z,25.17
2018-06-07T08:10:55.156Z,25.14
2018-06-07T08:12:01.458Z,25.06
2018-06-07T08:13:08.675Z,25.05
2018-06-07T08:14:14.951Z,25.14
2018-06-07T08:15:22.231Z,25.36
2018-06-07T08:16:29.019Z,25.67
2018-06-07T08:17:35.272Z,25.92
2018-06-07T08:18:42.553Z,26.12
2018-06-07T08:19:49.358Z,26.15
2018-06-07T08:20:55.624Z,26.29
2018-06-07T08:22:02.459Z,26.30
2018-06-07T08:23:09.258Z,26.13
2018-06-07T08:24:16.036Z,25.95
2018-06-07T08:25:24.335Z,25.81
2018-06-07T08:26:30.177Z,25.81
2018-06-07T08:27:36.468Z,25.93
2018-06-07T08:28:43.778Z,26.03
2018-06-07T08:29:50.666Z,26.15
2018-06-07T08:30:56.934Z,26.29
2018-06-07T08:32:03.788Z,26.45
2018-06-07T08:33:10.578Z,26.68
2018-06-07T08:34:17.414Z,26.90
2018-06-07T08:35:25.744Z,27.06
2018-06-07T08:36:31.913Z,27.20
2018-06-07T08:37:37.962Z,27.40
2018-06-07T08:38:45.311Z,27.51
2018-06-07T08:39:51.691Z,27.71
2018-06-07T08:40:59.073Z,27.92
2018-06-07T08:42:05.561Z,27.90
2018-06-07T08:43:12.860Z,27.88
2018-06-07T08:44:19.254Z,27.86
2018-06-07T08:45:26.150Z,27.95
2018-06-07T08:46:33.572Z,28.04
2018-06-07T08:47:40.466Z,28.16
2018-06-07T08:48:47.403Z,28.31
2018-06-07T08:49:54.332Z,28.44
2018-06-07T08:51:01.247Z,28.63
2018-06-07T08:52:07.722Z,28.71
2018-06-07T08:53:15.140Z,28.93
2018-06-07T08:54:22.086Z,28.85
2018-06-07T08:55:29.041Z,28.81
2018-06-07T08:56:36.023Z,28.77
2018-06-07T08:57:42.473Z,28.74
2018-06-07T08:58:49.465Z,28.80
2018-06-07T08:59:56.898Z,29.16
2018-06-07T09:01:03.365Z,29.36
2018-06-07T09:02:10.385Z,29.32
2018-06-07T09:03:17.802Z,29.12
2018-06-07T09:04:24.298Z,28.99
2018-06-07T09:05:31.775Z,28.93
2018-06-07T09:06:38.769Z,28.91
2018-06-07T09:07:45.243Z,28.91
2018-06-07T09:08:52.224Z,28.96
2018-06-07T09:09:59.220Z,29.26
2018-06-07T09:11:06.208Z,29.42
2018-06-07T09:12:13.227Z,29.41
2018-06-07T09:13:20.712Z,29.62
2018-06-07T09:14:27.217Z,29.73
2018-06-07T09:15:34.217Z,29.79
2018-06-07T09:16:42.754Z,29.68
2018-06-07T09:17:48.812Z,29.76
2018-06-07T09:18:55.287Z,29.94
2018-06-07T09:20:02.316Z,30.08
2018-06-07T09:21:09.371Z,29.95
2018-06-07T09:22:16.918Z,29.96
2018-06-07T09:23:23.893Z,30.26
2018-06-07T09:24:30.463Z,30.39
2018-06-07T09:25:37.465Z,30.55
2018-06-07T09:26:44.537Z,30.75
2018-06-07T09:27:52.046Z,30.97
2018-06-07T09:28:58.600Z,30.98
2018-06-07T09:30:06.128Z,30.69
2018-06-07T09:31:13.195Z,30.09
2018-06-07T09:32:20.270Z,29.39
2018-06-07T09:33:26.779Z,29.24
2018-06-07T09:34:34.312Z,29.35
2018-06-07T09:35:41.357Z,29.50
2018-06-07T09:36:47.934Z,29.79
2018-06-07T09:37:55.562Z,29.99
2018-06-07T09:39:02.497Z,30.19
2018-06-07T09:40:09.569Z,30.49
2018-06-07T09:41:16.613Z,30.77
2018-06-07T09:42:23.187Z,30.73
2018-06-07T09:43:30.220Z,30.95
2018-06-07T09:44:37.790Z,30.97
2018-06-07T09:45:44.854Z,31.36
2018-06-07T09:46:52.052Z,31.51
2018-06-07T09:47:58.513Z,31.51
2018-06-07T09:49:06.081Z,31.75
2018-06-07T09:50:13.162Z,31.81
2018-06-07T09:51:20.247Z,31.98
2018-06-07T09:52:28.354Z,31.89
2018-06-07T09:53:33.931Z,32.04
2018-06-07T09:54:41.526Z,32.33
2018-06-07T09:55:48.600Z,32.57
2018-06-07T09:56:55.229Z,32.51
2018-06-07T09:58:02.318Z,32.53
2018-06-07T09:59:09.892Z,32.15
2018-06-07T10:00:16.980Z,31.95
2018-06-07T10:01:23.567Z,31.74
2018-06-07T10:02:31.182Z,31.38
2018-06-07T10:03:38.262Z,31.03
2018-06-07T10:04:44.831Z,30.77
2018-06-07T10:05:51.910Z,30.62
2018-06-07T10:06:59.019Z,30.58
2018-06-07T10:08:06.081Z,30.52
2018-06-07T10:09:13.660Z,30.73
2018-06-07T10:10:20.230Z,30.78
2018-06-07T10:11:27.608Z,30.78
2018-06-07T10:12:35.004Z,30.81
2018-06-07T10:22:04.554Z,30.28
2018-06-07T10:23:11.603Z,30.21
2018-06-07T10:24:19.158Z,30.31
2018-06-07T10:25:26.210Z,30.48
2018-06-07T10:26:32.779Z,30.57
2018-06-07T10:27:40.305Z,30.73
2018-06-07T10:28:46.876Z,30.79
2018-06-07T10:29:54.432Z,30.73
2018-06-07T10:31:01.495Z,30.60
2018-06-07T10:32:09.537Z,30.48
2018-06-07T10:33:15.187Z,30.50
2018-06-07T10:34:22.197Z,30.62
2018-06-07T10:35:29.275Z,30.98
2018-06-07T10:36:36.884Z,31.22
2018-06-07T10:37:43.970Z,31.62
2018-06-07T10:38:50.590Z,32.26
2018-06-07T10:39:58.229Z,32.70
2018-06-07T10:41:05.346Z,33.10
2018-06-07T10:42:12.490Z,33.46
2018-06-07T10:43:19.150Z,33.61
2018-06-07T10:44:26.304Z,33.57
2018-06-07T10:45:33.483Z,33.46
2018-06-07T10:46:41.189Z,33.65
2018-06-07T10:47:48.355Z,33.68
2018-06-07T10:48:55.548Z,33.73
2018-06-07T10:50:02.740Z,33.90
2018-06-07T10:51:09.957Z,33.63
2018-06-07T10:52:17.189Z,33.41
2018-06-07T10:53:23.832Z,33.33
2018-06-07T10:54:31.018Z,33.21
2018-06-07T10:55:38.695Z,32.95
2018-06-07T10:56:45.863Z,32.72
2018-06-07T10:57:53.073Z,32.92
2018-06-07T10:59:00.259Z,33.10
2018-06-07T11:00:07.457Z,33.04
2018-06-07T11:01:14.673Z,33.25
2018-06-07T11:02:21.411Z,33.38
2018-06-07T11:03:29.174Z,33.71
2018-06-07T11:04:36.451Z,33.78
2018-06-07T11:05:43.792Z,33.61
2018-06-07T11:06:52.251Z,33.67
2018-06-07T11:07:58.673Z,33.80
2018-06-07T11:09:05.649Z,33.58
2018-06-07T11:10:13.708Z,33.26
2018-06-07T11:11:20.758Z,33.15
2018-06-07T11:12:28.364Z,32.95
2018-06-07T11:13:35.994Z,32.76
2018-06-07T11:14:44.143Z,32.52
2018-06-07T11:15:51.360Z,32.42
2018-06-07T11:16:59.194Z,32.47
2018-06-07T11:18:06.840Z,32.30
2018-06-07T11:19:15.180Z,32.28
2018-06-07T11:20:22.429Z,32.11
2018-06-07T11:21:30.753Z,32.06
2018-06-07T11:22:38.110Z,31.88
2018-06-07T11:23:46.491Z,32.06
2018-06-07T11:24:53.882Z,32.12
2018-06-07T11:26:01.782Z,32.01
2018-06-07T11:27:09.707Z,31.85
2018-06-07T11:28:18.129Z,31.76
2018-06-07T11:29:26.092Z,31.62
2018-06-07T11:30:34.568Z,31.58
2018-06-07T11:31:42.053Z,31.55
2018-06-07T11:32:49.543Z,31.49
2018-06-07T11:33:58.044Z,31.27
2018-06-07T11:35:05.569Z,31.07
2018-06-07T11:36:14.080Z,31.10
2018-06-07T11:37:22.130Z,31.29
2018-06-07T11:38:30.187Z,31.72
2018-06-07T11:39:37.728Z,31.93
2018-06-07T11:40:45.826Z,32.25
2018-06-07T11:41:53.856Z,32.55
2018-06-07T11:43:01.923Z,32.81
2018-06-07T11:44:10.475Z,32.96
2018-06-07T11:45:18.544Z,32.91
2018-06-07T11:46:26.089Z,32.86
2018-06-07T11:47:34.635Z,32.85
2018-06-07T11:48:42.744Z,32.90
2018-06-07T11:49:50.276Z,32.93
2018-06-07T11:50:58.359Z,33.04
2018-06-07T11:52:06.939Z,33.03
2018-06-07T11:53:14.549Z,32.75
2018-06-07T11:54:22.641Z,32.85
2018-06-07T11:55:30.749Z,32.70
2018-06-07T11:56:38.860Z,32.54
2018-06-07T11:57:46.979Z,32.62
2018-06-07T11:58:55.196Z,32.63
2018-06-07T12:00:03.221Z,32.64
2018-06-07T12:01:11.855Z,32.98
2018-06-07T12:02:19.498Z,32.80
2018-06-07T12:03:28.167Z,32.54
2018-06-07T12:04:35.837Z,32.83
2018-06-07T12:05:43.990Z,33.15
2018-06-07T12:06:52.171Z,33.39
2018-06-07T12:08:00.371Z,33.48
2018-06-07T12:09:08.576Z,33.23
2018-06-07T12:10:17.297Z,33.02
2018-06-07T12:11:25.052Z,32.81
2018-06-07T12:12:33.306Z,33.17
2018-06-07T12:13:41.562Z,33.31
2018-06-07T12:14:49.826Z,33.05
2018-06-07T12:15:58.107Z,32.93
2018-06-07T12:17:06.391Z,33.05
2018-06-07T12:18:15.200Z,33.21
2018-06-07T12:19:23.451Z,33.27
2018-06-07T12:20:31.747Z,33.32
2018-06-07T12:21:39.549Z,33.41
2018-06-07T12:22:48.350Z,33.61
2018-06-07T12:23:56.192Z,33.68
2018-06-07T12:25:04.512Z,33.84
2018-06-07T12:26:12.854Z,33.98
2018-06-07T12:27:21.710Z,33.79
2018-06-07T12:28:29.573Z,33.72
2018-06-07T12:29:37.919Z,33.67
2018-06-07T12:30:46.300Z,33.74
2018-06-07T12:31:54.665Z,34.10
2018-06-07T12:33:03.044Z,34.54
2018-06-07T12:34:11.909Z,34.88
2018-06-07T12:35:20.251Z,34.89
2018-06-07T12:36:27.986Z,34.77
2018-06-07T12:37:36.606Z,34.33
2018-06-07T12:38:45.199Z,33.84
2018-06-07T12:39:52.140Z,33.47
2018-06-07T12:41:00.466Z,33.19
2018-06-07T12:42:08.277Z,33.03
2018-06-07T12:43:15.539Z,33.04
2018-06-07T12:44:23.238Z,32.93
2018-06-07T12:45:30.883Z,32.83
2018-06-07T12:46:38.598Z,32.67
2018-06-07T12:47:46.097Z,32.43
2018-06-07T12:48:55.192Z,32.27
2018-06-07T12:50:01.166Z,32.03
2018-06-07T12:51:08.653Z,31.36
2018-06-07T12:52:16.103Z,30.69
2018-06-07T12:53:24.015Z,29.73
2018-06-07T12:54:30.890Z,28.94
2018-06-07T12:55:38.723Z,28.23
2018-06-07T12:56:46.027Z,27.53
2018-06-07T12:57:52.795Z,27.09
2018-06-07T12:59:00.051Z,27.07
2018-06-07T13:00:07.275Z,26.63
2018-06-07T13:01:14.951Z,26.43
2018-06-07T13:02:22.195Z,26.21
2018-06-07T13:03:29.771Z,25.93
2018-06-07T13:04:36.403Z,25.56
2018-06-07T13:05:43.483Z,25.52
2018-06-07T13:06:50.072Z,25.44
2018-06-07T13:07:57.121Z,25.55
2018-06-07T13:09:04.183Z,25.62
2018-06-07T13:15:46.160Z,23.73
2018-06-07T13:16:53.190Z,23.29
2018-06-07T13:18:00.049Z,22.37
2018-06-07T13:19:07.481Z,21.83
2018-06-07T13:20:13.885Z,21.32
2018-06-07T13:21:20.770Z,21.05
2018-06-07T13:22:27.640Z,20.81
2018-06-07T13:23:35.004Z,20.80
2018-06-07T13:24:41.824Z,20.72
2018-06-07T13:25:48.646Z,20.77
2018-06-07T13:26:54.945Z,20.75
2018-06-07T13:28:01.725Z,20.66
2018-06-07T13:29:09.507Z,20.64
2018-06-07T13:30:15.749Z,20.66
2018-06-07T13:31:22.497Z,20.50
2018-06-07T13:32:28.723Z,20.38
2018-06-07T13:33:35.458Z,20.30
2018-06-07T13:34:42.170Z,20.20
2018-06-07T13:35:48.863Z,20.11
2018-06-07T13:36:55.559Z,19.94
2018-06-07T13:38:02.745Z,19.82
2018-06-07T13:39:08.909Z,19.76
2018-06-07T13:40:15.619Z,19.71
2018-06-07T13:41:22.735Z,19.63
2018-06-07T13:42:28.985Z,19.53
2018-06-07T13:43:35.550Z,19.38
2018-06-07T13:44:42.670Z,19.21
2018-06-07T13:45:49.304Z,19.04
2018-06-07T13:46:55.947Z,19.03
2018-06-07T13:48:02.553Z,19.04
2018-06-07T13:49:08.672Z,19.04
2018-06-07T13:50:15.790Z,19.07
2018-06-07T13:51:23.380Z,18.94
2018-06-07T13:52:28.997Z,18.87
2018-06-07T13:53:35.601Z,18.73
2018-06-07T13:54:42.181Z,18.67
2018-06-07T13:55:48.798Z,18.74
2018-06-07T13:56:55.377Z,18.78
2018-06-07T13:58:01.963Z,18.83
2018-06-07T13:59:08.056Z,18.90
2018-06-07T14:00:15.194Z,18.83
2018-06-07T14:01:21.692Z,18.84
2018-06-07T14:02:29.268Z,18.79
2018-06-07T14:03:34.345Z,18.81
2018-06-07T14:04:41.417Z,18.78
2018-06-07T14:05:47.969Z,18.69
2018-06-07T14:06:54.530Z,18.55
2018-06-07T14:08:00.592Z,18.43
2018-06-07T14:09:07.645Z,18.37
2018-06-07T14:10:14.197Z,18.31
2018-06-07T14:11:20.758Z,18.29
2018-06-07T14:12:26.799Z,18.21
2018-06-07T14:13:33.838Z,18.17
2018-06-07T14:14:39.882Z,18.21
2018-06-07T14:15:46.918Z,18.20
2018-06-07T14:16:52.947Z,18.18
2018-06-07T14:17:59.489Z,18.18
2018-06-07T14:19:06.027Z,18.19
2018-06-07T14:20:13.064Z,18.28
2018-06-07T14:21:19.569Z,18.40
2018-06-07T14:22:26.115Z,18.43
2018-06-07T14:23:32.145Z,18.41
2018-06-07T14:24:38.672Z,18.42
2018-06-07T14:25:45.198Z,18.43
2018-06-07T14:26:52.220Z,18.42
2018-06-07T14:27:58.762Z,18.38
2018-06-07T14:29:04.771Z,18.45
2018-06-07T14:30:11.789Z,18.56
2018-06-07T14:31:18.006Z,18.65
2018-06-07T14:32:24.329Z,18.71
2018-06-07T14:33:30.859Z,18.73
2018-06-07T14:34:37.382Z,18.72